sensor_id;sensor_type;location;lat;lon;timestamp;temperature;humidity
32839;DHT22;19182;41.820;12.808;2024-01-10T00:01:44;7.60;99.90
32839;DHT22;19182;41.820;12.808;2024-01-10T00:04:11;7.50;99.90
32839;DHT22;19182;41.820;12.808;2024-01-10T00:06:36;7.50;99.90
32839;DHT22;19182;41.820;12.808;2024-01-10T00:09:03;7.40;99.90
32839;DHT22;19182;41.820;12.808;2024-01-10T00:11:29;7.00;99.90
32839;DHT22;19182;41.820;12.808;2024-01-10T00:13:55;7.50;99.90
32839;DHT22;19182;41.820;12.808;2024-01-10T00:16:28;7.50;99.90
32839;DHT22;19182;41.820;12.808;2024-01-10T00:18:54;7.50;99.90
32839;DHT22;19182;41.820;12.808;2024-01-10T00:21:19;7.40;99.90
32839;DHT22;19182;41.820;12.808;2024-01-10T00:23:45;7.40;99.90
32839;DHT22;19182;41.820;12.808;2024-01-10T00:26:12;7.30;99.90
32839;DHT22;19182;41.820;12.808;2024-01-10T00:28:39;7.30;99.90
32839;DHT22;19182;41.820;12.808;2024-01-10T00:31:05;7.10;99.90
32839;DHT22;19182;41.820;12.808;2024-01-10T00:33:31;7.10;99.90
32839;DHT22;19182;41.820;12.808;2024-01-10T00:35:56;7.20;99.90
32839;DHT22;19182;41.820;12.808;2024-01-10T00:38:22;7.10;99.90
32839;DHT22;19182;41.820;12.808;2024-01-10T00:40:49;7.20;99.90
32839;DHT22;19182;41.820;12.808;2024-01-10T00:43:15;7.20;99.90
32839;DHT22;19182;41.820;12.808;2024-01-10T00:45:42;7.20;99.90
32839;DHT22;19182;41.820;12.808;2024-01-10T00:48:08;7.20;99.90
32839;DHT22;19182;41.820;12.808;2024-01-10T00:50:35;7.10;99.90
32839;DHT22;19182;41.820;12.808;2024-01-10T00:53:00;7.20;99.90
32839;DHT22;19182;41.820;12.808;2024-01-10T00:55:27;7.00;99.90
32839;DHT22;19182;41.820;12.808;2024-01-10T00:57:53;7.10;99.90
32839;DHT22;19182;41.820;12.808;2024-01-10T01:00:20;7.20;99.90
32839;DHT22;19182;41.820;12.808;2024-01-10T01:02:46;7.20;99.90
32839;DHT22;19182;41.820;12.808;2024-01-10T01:05:12;7.10;99.90
32839;DHT22;19182;41.820;12.808;2024-01-10T01:07:38;7.20;99.90
32839;DHT22;19182;41.820;12.808;2024-01-10T01:10:05;7.10;99.90
32839;DHT22;19182;41.820;12.808;2024-01-10T01:12:31;7.10;99.90
32839;DHT22;19182;41.820;12.808;2024-01-10T01:14:57;7.10;99.90
32839;DHT22;19182;41.820;12.808;2024-01-10T01:17:24;5.40;99.90
32839;DHT22;19182;41.820;12.808;2024-01-10T01:19:50;7.10;99.90
32839;DHT22;19182;41.820;12.808;2024-01-10T01:22:17;7.00;99.90
32839;DHT22;19182;41.820;12.808;2024-01-10T01:24:43;7.00;99.90
32839;DHT22;19182;41.820;12.808;2024-01-10T01:27:11;7.10;99.90
32839;DHT22;19182;41.820;12.808;2024-01-10T01:29:38;7.10;99.90
32839;DHT22;19182;41.820;12.808;2024-01-10T01:32:03;7.20;99.90
32839;DHT22;19182;41.820;12.808;2024-01-10T01:34:30;7.20;99.90
32839;DHT22;19182;41.820;12.808;2024-01-10T01:36:55;7.20;99.90
32839;DHT22;19182;41.820;12.808;2024-01-10T01:39:21;7.20;99.90
32839;DHT22;19182;41.820;12.808;2024-01-10T01:41:47;7.10;99.90
32839;DHT22;19182;41.820;12.808;2024-01-10T01:44:13;7.00;99.90
32839;DHT22;19182;41.820;12.808;2024-01-10T01:46:40;7.00;99.90
32839;DHT22;19182;41.820;12.808;2024-01-10T01:49:08;7.00;99.90
32839;DHT22;19182;41.820;12.808;2024-01-10T01:51:35;7.00;99.90
32839;DHT22;19182;41.820;12.808;2024-01-10T01:54:06;7.00;99.90
32839;DHT22;19182;41.820;12.808;2024-01-10T01:56:35;6.90;99.90
32839;DHT22;19182;41.820;12.808;2024-01-10T01:59:04;6.90;99.90
32839;DHT22;19182;41.820;12.808;2024-01-10T02:01:31;6.70;99.90
32839;DHT22;19182;41.820;12.808;2024-01-10T02:03:57;6.80;99.90
32839;DHT22;19182;41.820;12.808;2024-01-10T02:06:23;6.80;99.90
32839;DHT22;19182;41.820;12.808;2024-01-10T02:08:50;6.70;99.90
32839;DHT22;19182;41.820;12.808;2024-01-10T02:11:18;6.80;99.90
32839;DHT22;19182;41.820;12.808;2024-01-10T02:13:46;6.60;99.90
32839;DHT22;19182;41.820;12.808;2024-01-10T02:16:12;6.60;99.90
32839;DHT22;19182;41.820;12.808;2024-01-10T02:18:38;6.60;99.90
32839;DHT22;19182;41.820;12.808;2024-01-10T02:21:05;6.60;99.90
32839;DHT22;19182;41.820;12.808;2024-01-10T02:23:31;6.70;99.90
32839;DHT22;19182;41.820;12.808;2024-01-10T02:25:58;6.70;99.90
32839;DHT22;19182;41.820;12.808;2024-01-10T02:28:24;6.70;99.90
32839;DHT22;19182;41.820;12.808;2024-01-10T02:30:52;6.70;99.90
32839;DHT22;19182;41.820;12.808;2024-01-10T02:33:20;6.70;99.90
32839;DHT22;19182;41.820;12.808;2024-01-10T02:35:46;6.70;99.90
32839;DHT22;19182;41.820;12.808;2024-01-10T02:38:13;6.60;99.90
32839;DHT22;19182;41.820;12.808;2024-01-10T02:40:39;6.60;99.90
32839;DHT22;19182;41.820;12.808;2024-01-10T02:43:06;6.60;99.90
32839;DHT22;19182;41.820;12.808;2024-01-10T02:45:34;6.70;99.90
32839;DHT22;19182;41.820;12.808;2024-01-10T02:48:01;6.70;99.90
32839;DHT22;19182;41.820;12.808;2024-01-10T02:50:26;6.70;99.90
32839;DHT22;19182;41.820;12.808;2024-01-10T02:52:53;6.70;99.90
32839;DHT22;19182;41.820;12.808;2024-01-10T02:55:19;6.70;99.90
32839;DHT22;19182;41.820;12.808;2024-01-10T02:57:46;6.70;99.90
32839;DHT22;19182;41.820;12.808;2024-01-10T03:00:12;6.70;99.90
32839;DHT22;19182;41.820;12.808;2024-01-10T03:02:39;6.80;99.90
32839;DHT22;19182;41.820;12.808;2024-01-10T03:05:05;6.70;99.90
32839;DHT22;19182;41.820;12.808;2024-01-10T03:07:32;6.70;99.90
32839;DHT22;19182;41.820;12.808;2024-01-10T03:09:57;6.90;99.90
32839;DHT22;19182;41.820;12.808;2024-01-10T03:12:23;6.80;99.90
32839;DHT22;19182;41.820;12.808;2024-01-10T03:14:49;6.80;99.90
32839;DHT22;19182;41.820;12.808;2024-01-10T03:17:14;6.80;99.90
32839;DHT22;19182;41.820;12.808;2024-01-10T03:19:40;6.80;99.90
32839;DHT22;19182;41.820;12.808;2024-01-10T03:22:10;6.80;99.90
32839;DHT22;19182;41.820;12.808;2024-01-10T03:24:40;6.80;99.90
32839;DHT22;19182;41.820;12.808;2024-01-10T03:27:06;6.90;99.90
32839;DHT22;19182;41.820;12.808;2024-01-10T03:29:33;6.90;99.90
32839;DHT22;19182;41.820;12.808;2024-01-10T03:32:00;6.80;99.90
32839;DHT22;19182;41.820;12.808;2024-01-10T03:34:28;6.80;99.90
32839;DHT22;19182;41.820;12.808;2024-01-10T03:36:53;6.80;99.90
32839;DHT22;19182;41.820;12.808;2024-01-10T03:39:19;6.90;99.90
32839;DHT22;19182;41.820;12.808;2024-01-10T03:41:47;6.80;99.90
32839;DHT22;19182;41.820;12.808;2024-01-10T03:44:14;6.80;99.90
32839;DHT22;19182;41.820;12.808;2024-01-10T03:46:41;6.80;99.90
32839;DHT22;19182;41.820;12.808;2024-01-10T03:49:08;6.90;99.90
32839;DHT22;19182;41.820;12.808;2024-01-10T03:51:35;6.90;99.90
32839;DHT22;19182;41.820;12.808;2024-01-10T03:54:02;6.90;99.90
32839;DHT22;19182;41.820;12.808;2024-01-10T03:56:28;6.90;99.90
32839;DHT22;19182;41.820;12.808;2024-01-10T03:58:55;6.90;99.90
32839;DHT22;19182;41.820;12.808;2024-01-10T04:01:24;6.90;99.90
32839;DHT22;19182;41.820;12.808;2024-01-10T04:03:51;6.90;99.90
32839;DHT22;19182;41.820;12.808;2024-01-10T04:06:17;6.80;99.90
32839;DHT22;19182;41.820;12.808;2024-01-10T04:08:43;6.80;99.90
32839;DHT22;19182;41.820;12.808;2024-01-10T04:11:09;6.90;99.90
32839;DHT22;19182;41.820;12.808;2024-01-10T04:13:35;7.00;99.90
32839;DHT22;19182;41.820;12.808;2024-01-10T04:16:01;7.00;99.90
32839;DHT22;19182;41.820;12.808;2024-01-10T04:18:26;6.90;99.90
32839;DHT22;19182;41.820;12.808;2024-01-10T04:20:53;7.00;99.90
32839;DHT22;19182;41.820;12.808;2024-01-10T04:23:21;6.90;99.90
32839;DHT22;19182;41.820;12.808;2024-01-10T04:25:46;6.90;99.90
32839;DHT22;19182;41.820;12.808;2024-01-10T04:28:12;6.90;99.90
32839;DHT22;19182;41.820;12.808;2024-01-10T04:30:40;6.90;99.90
32839;DHT22;19182;41.820;12.808;2024-01-10T04:33:07;6.80;99.90
32839;DHT22;19182;41.820;12.808;2024-01-10T04:35:33;6.90;99.90
32839;DHT22;19182;41.820;12.808;2024-01-10T04:37:59;6.90;99.90
32839;DHT22;19182;41.820;12.808;2024-01-10T04:40:25;6.90;99.90
32839;DHT22;19182;41.820;12.808;2024-01-10T04:42:52;6.90;99.90
32839;DHT22;19182;41.820;12.808;2024-01-10T04:45:18;6.80;99.90
32839;DHT22;19182;41.820;12.808;2024-01-10T04:47:45;6.80;99.90
32839;DHT22;19182;41.820;12.808;2024-01-10T04:50:12;6.80;99.90
32839;DHT22;19182;41.820;12.808;2024-01-10T04:52:39;6.80;99.90
32839;DHT22;19182;41.820;12.808;2024-01-10T04:55:05;6.80;99.90
32839;DHT22;19182;41.820;12.808;2024-01-10T04:57:34;6.90;99.90
32839;DHT22;19182;41.820;12.808;2024-01-10T05:00:00;6.90;99.90
32839;DHT22;19182;41.820;12.808;2024-01-10T05:02:26;6.80;99.90
32839;DHT22;19182;41.820;12.808;2024-01-10T05:04:53;6.90;99.90
32839;DHT22;19182;41.820;12.808;2024-01-10T05:07:19;6.80;99.90
32839;DHT22;19182;41.820;12.808;2024-01-10T05:09:46;6.80;99.90
32839;DHT22;19182;41.820;12.808;2024-01-10T05:12:13;6.70;99.90
32839;DHT22;19182;41.820;12.808;2024-01-10T05:14:40;6.70;99.90
32839;DHT22;19182;41.820;12.808;2024-01-10T05:17:06;6.80;99.90
32839;DHT22;19182;41.820;12.808;2024-01-10T05:19:33;6.80;99.90
32839;DHT22;19182;41.820;12.808;2024-01-10T05:22:00;6.70;99.90
32839;DHT22;19182;41.820;12.808;2024-01-10T05:24:26;6.70;99.90
32839;DHT22;19182;41.820;12.808;2024-01-10T05:26:53;6.70;99.90
32839;DHT22;19182;41.820;12.808;2024-01-10T05:29:19;6.80;99.90
32839;DHT22;19182;41.820;12.808;2024-01-10T05:31:46;6.70;99.90
32839;DHT22;19182;41.820;12.808;2024-01-10T05:34:13;6.70;99.90
32839;DHT22;19182;41.820;12.808;2024-01-10T05:36:39;6.70;99.90
32839;DHT22;19182;41.820;12.808;2024-01-10T05:39:05;6.80;99.90
32839;DHT22;19182;41.820;12.808;2024-01-10T05:41:31;6.90;99.90
32839;DHT22;19182;41.820;12.808;2024-01-10T05:43:56;6.80;99.90
32839;DHT22;19182;41.820;12.808;2024-01-10T05:46:22;6.80;99.90
32839;DHT22;19182;41.820;12.808;2024-01-10T05:48:49;6.80;99.90
32839;DHT22;19182;41.820;12.808;2024-01-10T05:51:15;6.80;99.90
32839;DHT22;19182;41.820;12.808;2024-01-10T05:53:41;6.80;99.90
32839;DHT22;19182;41.820;12.808;2024-01-10T05:56:08;6.60;99.90
32839;DHT22;19182;41.820;12.808;2024-01-10T05:58:35;6.50;99.90
32839;DHT22;19182;41.820;12.808;2024-01-10T06:01:02;6.40;99.90
32839;DHT22;19182;41.820;12.808;2024-01-10T06:03:28;6.40;99.90
32839;DHT22;19182;41.820;12.808;2024-01-10T06:05:55;6.40;99.90
32839;DHT22;19182;41.820;12.808;2024-01-10T06:08:22;6.40;99.90
32839;DHT22;19182;41.820;12.808;2024-01-10T06:10:52;6.40;99.90
32839;DHT22;19182;41.820;12.808;2024-01-10T06:13:18;6.40;99.90
32839;DHT22;19182;41.820;12.808;2024-01-10T06:15:45;6.30;99.90
32839;DHT22;19182;41.820;12.808;2024-01-10T06:18:12;6.30;99.90
32839;DHT22;19182;41.820;12.808;2024-01-10T06:20:42;6.40;99.90
32839;DHT22;19182;41.820;12.808;2024-01-10T06:23:08;7.00;99.90
32839;DHT22;19182;41.820;12.808;2024-01-10T06:25:35;6.30;99.90
32839;DHT22;19182;41.820;12.808;2024-01-10T06:28:02;6.40;99.90
32839;DHT22;19182;41.820;12.808;2024-01-10T06:30:29;6.40;99.90
32839;DHT22;19182;41.820;12.808;2024-01-10T06:32:56;6.40;99.90
32839;DHT22;19182;41.820;12.808;2024-01-10T06:35:23;6.40;99.90
32839;DHT22;19182;41.820;12.808;2024-01-10T06:37:51;6.40;99.90
32839;DHT22;19182;41.820;12.808;2024-01-10T06:40:17;6.50;99.90
32839;DHT22;19182;41.820;12.808;2024-01-10T06:42:43;6.40;99.90
32839;DHT22;19182;41.820;12.808;2024-01-10T06:45:10;6.40;99.90
32839;DHT22;19182;41.820;12.808;2024-01-10T06:47:37;6.40;99.90
32839;DHT22;19182;41.820;12.808;2024-01-10T06:50:04;6.40;99.90
32839;DHT22;19182;41.820;12.808;2024-01-10T06:52:31;4.10;99.90
32839;DHT22;19182;41.820;12.808;2024-01-10T06:54:57;6.50;99.90
32839;DHT22;19182;41.820;12.808;2024-01-10T06:57:24;6.50;99.90
32839;DHT22;19182;41.820;12.808;2024-01-10T06:59:49;6.50;99.90
32839;DHT22;19182;41.820;12.808;2024-01-10T07:02:15;6.50;99.90
32839;DHT22;19182;41.820;12.808;2024-01-10T07:04:42;6.60;99.90
32839;DHT22;19182;41.820;12.808;2024-01-10T07:07:08;6.60;99.90
32839;DHT22;19182;41.820;12.808;2024-01-10T07:09:34;6.50;99.90
32839;DHT22;19182;41.820;12.808;2024-01-10T07:11:59;6.50;99.90
32839;DHT22;19182;41.820;12.808;2024-01-10T07:14:26;6.70;99.90
32839;DHT22;19182;41.820;12.808;2024-01-10T07:16:53;6.70;99.90
32839;DHT22;19182;41.820;12.808;2024-01-10T07:19:23;6.70;99.90
32839;DHT22;19182;41.820;12.808;2024-01-10T07:21:51;6.70;99.90
32839;DHT22;19182;41.820;12.808;2024-01-10T07:24:17;6.70;99.90
32839;DHT22;19182;41.820;12.808;2024-01-10T07:26:45;6.70;99.90
32839;DHT22;19182;41.820;12.808;2024-01-10T07:29:11;6.90;99.90
32839;DHT22;19182;41.820;12.808;2024-01-10T07:31:37;7.00;99.90
32839;DHT22;19182;41.820;12.808;2024-01-10T07:34:04;7.00;99.90
32839;DHT22;19182;41.820;12.808;2024-01-10T07:36:32;7.00;99.90
32839;DHT22;19182;41.820;12.808;2024-01-10T07:39:02;7.20;99.90
32839;DHT22;19182;41.820;12.808;2024-01-10T07:41:28;7.10;99.90
32839;DHT22;19182;41.820;12.808;2024-01-10T07:43:55;7.10;99.90
32839;DHT22;19182;41.820;12.808;2024-01-10T07:46:24;7.30;99.90
32839;DHT22;19182;41.820;12.808;2024-01-10T07:51:19;7.30;99.90
32839;DHT22;19182;41.820;12.808;2024-01-10T07:53:47;7.40;99.90
32839;DHT22;19182;41.820;12.808;2024-01-10T07:56:15;7.50;99.90
32839;DHT22;19182;41.820;12.808;2024-01-10T07:58:42;7.50;99.90
32839;DHT22;19182;41.820;12.808;2024-01-10T08:01:09;7.60;99.90
32839;DHT22;19182;41.820;12.808;2024-01-10T08:03:36;7.60;99.90
32839;DHT22;19182;41.820;12.808;2024-01-10T08:06:02;7.60;99.90
32839;DHT22;19182;41.820;12.808;2024-01-10T08:08:29;7.60;99.90
32839;DHT22;19182;41.820;12.808;2024-01-10T08:10:57;7.60;99.90
32839;DHT22;19182;41.820;12.808;2024-01-10T08:13:24;7.70;99.90
32839;DHT22;19182;41.820;12.808;2024-01-10T08:15:50;7.60;99.90
32839;DHT22;19182;41.820;12.808;2024-01-10T08:18:17;7.70;99.90
32839;DHT22;19182;41.820;12.808;2024-01-10T08:20:43;7.80;99.90
32839;DHT22;19182;41.820;12.808;2024-01-10T08:23:09;7.80;99.90
32839;DHT22;19182;41.820;12.808;2024-01-10T08:25:35;7.70;99.90
32839;DHT22;19182;41.820;12.808;2024-01-10T08:28:02;7.80;99.90
32839;DHT22;19182;41.820;12.808;2024-01-10T08:30:28;7.70;99.90
32839;DHT22;19182;41.820;12.808;2024-01-10T08:32:54;7.60;99.90
32839;DHT22;19182;41.820;12.808;2024-01-10T08:35:21;7.60;99.90
32839;DHT22;19182;41.820;12.808;2024-01-10T08:37:47;7.60;99.90
32839;DHT22;19182;41.820;12.808;2024-01-10T08:40:15;7.50;99.90
32839;DHT22;19182;41.820;12.808;2024-01-10T08:42:41;7.40;99.90
32839;DHT22;19182;41.820;12.808;2024-01-10T08:45:08;7.40;99.90
32839;DHT22;19182;41.820;12.808;2024-01-10T08:47:35;7.30;99.90
32839;DHT22;19182;41.820;12.808;2024-01-10T08:50:04;7.30;99.90
32839;DHT22;19182;41.820;12.808;2024-01-10T08:52:35;7.30;99.90
32839;DHT22;19182;41.820;12.808;2024-01-10T08:55:05;7.40;99.90
32839;DHT22;19182;41.820;12.808;2024-01-10T08:57:32;7.40;99.90
32839;DHT22;19182;41.820;12.808;2024-01-10T08:59:59;7.40;99.90
32839;DHT22;19182;41.820;12.808;2024-01-10T09:02:25;7.50;99.90
32839;DHT22;19182;41.820;12.808;2024-01-10T09:04:54;7.70;99.90
32839;DHT22;19182;41.820;12.808;2024-01-10T09:07:20;7.80;99.90
32839;DHT22;19182;41.820;12.808;2024-01-10T09:09:47;8.10;99.90
32839;DHT22;19182;41.820;12.808;2024-01-10T09:12:14;8.60;99.90
32839;DHT22;19182;41.820;12.808;2024-01-10T09:14:42;8.60;99.90
32839;DHT22;19182;41.820;12.808;2024-01-10T09:17:08;8.80;99.90
32839;DHT22;19182;41.820;12.808;2024-01-10T09:19:33;9.10;99.90
32839;DHT22;19182;41.820;12.808;2024-01-10T09:22:00;9.30;99.90
32839;DHT22;19182;41.820;12.808;2024-01-10T09:24:27;9.10;99.90
32839;DHT22;19182;41.820;12.808;2024-01-10T09:26:53;9.10;99.90
32839;DHT22;19182;41.820;12.808;2024-01-10T09:29:23;9.20;99.90
32839;DHT22;19182;41.820;12.808;2024-01-10T09:31:49;9.20;99.90
32839;DHT22;19182;41.820;12.808;2024-01-10T09:34:16;9.30;99.90
32839;DHT22;19182;41.820;12.808;2024-01-10T09:36:43;9.20;99.90
32839;DHT22;19182;41.820;12.808;2024-01-10T09:39:09;9.50;99.90
32839;DHT22;19182;41.820;12.808;2024-01-10T09:41:44;9.80;99.90
32839;DHT22;19182;41.820;12.808;2024-01-10T09:44:12;10.70;99.90
32839;DHT22;19182;41.820;12.808;2024-01-10T09:46:40;11.60;99.90
32839;DHT22;19182;41.820;12.808;2024-01-10T09:49:09;13.20;99.90
32839;DHT22;19182;41.820;12.808;2024-01-10T09:51:36;13.00;99.90
32839;DHT22;19182;41.820;12.808;2024-01-10T09:54:03;11.70;99.90
32839;DHT22;19182;41.820;12.808;2024-01-10T09:56:30;10.90;99.90
32839;DHT22;19182;41.820;12.808;2024-01-10T09:58:58;11.00;99.90
32839;DHT22;19182;41.820;12.808;2024-01-10T10:01:26;11.70;99.90
32839;DHT22;19182;41.820;12.808;2024-01-10T10:03:53;12.00;99.90
32839;DHT22;19182;41.820;12.808;2024-01-10T10:06:23;12.30;99.90
32839;DHT22;19182;41.820;12.808;2024-01-10T10:11:16;12.10;99.90
32839;DHT22;19182;41.820;12.808;2024-01-10T10:13:42;12.40;99.90
32839;DHT22;19182;41.820;12.808;2024-01-10T10:16:08;12.00;99.90
32839;DHT22;19182;41.820;12.808;2024-01-10T10:18:40;11.40;99.90
32839;DHT22;19182;41.820;12.808;2024-01-10T10:21:13;10.90;99.90
32839;DHT22;19182;41.820;12.808;2024-01-10T10:23:56;10.40;99.90
32839;DHT22;19182;41.820;12.808;2024-01-10T10:26:23;10.00;99.90
32839;DHT22;19182;41.820;12.808;2024-01-10T10:28:50;10.10;99.90
32839;DHT22;19182;41.820;12.808;2024-01-10T10:31:19;10.60;99.90
32839;DHT22;19182;41.820;12.808;2024-01-10T10:33:45;10.60;99.90
32839;DHT22;19182;41.820;12.808;2024-01-10T10:36:14;10.80;99.90
32839;DHT22;19182;41.820;12.808;2024-01-10T10:38:40;11.10;99.90
32839;DHT22;19182;41.820;12.808;2024-01-10T10:41:06;11.10;99.90
32839;DHT22;19182;41.820;12.808;2024-01-10T10:43:40;11.10;99.90
32839;DHT22;19182;41.820;12.808;2024-01-10T10:46:10;11.50;99.90
32839;DHT22;19182;41.820;12.808;2024-01-10T10:48:40;12.10;99.90
32839;DHT22;19182;41.820;12.808;2024-01-10T10:51:09;12.80;99.90
32839;DHT22;19182;41.820;12.808;2024-01-10T10:53:39;13.20;99.90
32839;DHT22;19182;41.820;12.808;2024-01-10T10:56:09;13.30;99.90
32839;DHT22;19182;41.820;12.808;2024-01-10T10:58:36;13.80;99.90
32839;DHT22;19182;41.820;12.808;2024-01-10T11:01:07;14.40;99.90
32839;DHT22;19182;41.820;12.808;2024-01-10T11:03:33;14.20;99.90
32839;DHT22;19182;41.820;12.808;2024-01-10T11:06:01;13.50;99.90
32839;DHT22;19182;41.820;12.808;2024-01-10T11:08:28;12.30;99.90
32839;DHT22;19182;41.820;12.808;2024-01-10T11:10:55;11.70;99.90
32839;DHT22;19182;41.820;12.808;2024-01-10T11:13:37;11.80;99.90
32839;DHT22;19182;41.820;12.808;2024-01-10T11:19:45;11.30;99.90
32839;DHT22;19182;41.820;12.808;2024-01-10T11:25:11;11.50;99.90
32839;DHT22;19182;41.820;12.808;2024-01-10T11:27:40;12.20;99.90
32839;DHT22;19182;41.820;12.808;2024-01-10T11:30:06;12.30;99.90
32839;DHT22;19182;41.820;12.808;2024-01-10T11:32:32;12.90;99.90
32839;DHT22;19182;41.820;12.808;2024-01-10T11:35:00;13.10;99.90
32839;DHT22;19182;41.820;12.808;2024-01-10T11:37:47;13.10;99.90
32839;DHT22;19182;41.820;12.808;2024-01-10T11:40:16;13.10;99.90
32839;DHT22;19182;41.820;12.808;2024-01-10T11:43:02;12.90;99.90
32839;DHT22;19182;41.820;12.808;2024-01-10T11:48:00;12.30;99.90
32839;DHT22;19182;41.820;12.808;2024-01-10T11:50:26;11.80;99.90
32839;DHT22;19182;41.820;12.808;2024-01-10T11:55:46;11.30;99.90
32839;DHT22;19182;41.820;12.808;2024-01-10T11:58:13;12.30;99.90
32839;DHT22;19182;41.820;12.808;2024-01-10T12:00:41;11.10;99.90
32839;DHT22;19182;41.820;12.808;2024-01-10T12:08:06;11.30;99.90
32839;DHT22;19182;41.820;12.808;2024-01-10T12:13:03;10.60;99.90
32839;DHT22;19182;41.820;12.808;2024-01-10T12:22:47;10.50;99.90
32839;DHT22;19182;41.820;12.808;2024-01-10T12:25:13;10.50;99.90
32839;DHT22;19182;41.820;12.808;2024-01-10T12:30:06;10.30;99.90
32839;DHT22;19182;41.820;12.808;2024-01-10T12:32:33;10.20;99.90
32839;DHT22;19182;41.820;12.808;2024-01-10T12:35:03;10.10;99.90
32839;DHT22;19182;41.820;12.808;2024-01-10T12:37:29;10.00;99.90
32839;DHT22;19182;41.820;12.808;2024-01-10T12:39:55;10.00;99.90
32839;DHT22;19182;41.820;12.808;2024-01-10T12:42:21;9.00;99.90
32839;DHT22;19182;41.820;12.808;2024-01-10T12:47:20;10.30;99.90
32839;DHT22;19182;41.820;12.808;2024-01-10T12:49:49;10.20;99.90
32839;DHT22;19182;41.820;12.808;2024-01-10T12:52:19;10.50;99.90
32839;DHT22;19182;41.820;12.808;2024-01-10T12:54:47;10.50;99.90
32839;DHT22;19182;41.820;12.808;2024-01-10T12:59:38;10.50;99.90
32839;DHT22;19182;41.820;12.808;2024-01-10T13:02:04;10.50;99.90
32839;DHT22;19182;41.820;12.808;2024-01-10T13:04:30;10.30;99.90
32839;DHT22;19182;41.820;12.808;2024-01-10T13:06:55;10.30;99.90
32839;DHT22;19182;41.820;12.808;2024-01-10T13:09:21;10.20;99.90
32839;DHT22;19182;41.820;12.808;2024-01-10T13:11:47;10.20;99.90
32839;DHT22;19182;41.820;12.808;2024-01-10T13:14:12;10.20;99.90
32839;DHT22;19182;41.820;12.808;2024-01-10T13:16:38;10.20;99.90
32839;DHT22;19182;41.820;12.808;2024-01-10T13:21:33;10.20;99.90
32839;DHT22;19182;41.820;12.808;2024-01-10T13:26:28;10.30;99.90
32839;DHT22;19182;41.820;12.808;2024-01-10T13:33:46;10.20;99.90
32839;DHT22;19182;41.820;12.808;2024-01-10T13:36:15;10.20;99.90
32839;DHT22;19182;41.820;12.808;2024-01-10T13:38:41;10.10;99.90
32839;DHT22;19182;41.820;12.808;2024-01-10T13:41:08;10.10;99.90
32839;DHT22;19182;41.820;12.808;2024-01-10T13:43:34;10.10;99.90
32839;DHT22;19182;41.820;12.808;2024-01-10T13:46:00;10.00;99.90
32839;DHT22;19182;41.820;12.808;2024-01-10T13:48:29;10.10;99.90
32839;DHT22;19182;41.820;12.808;2024-01-10T13:50:55;10.10;99.90
32839;DHT22;19182;41.820;12.808;2024-01-10T13:53:20;10.20;99.90
32839;DHT22;19182;41.820;12.808;2024-01-10T13:55:46;10.10;99.90
32839;DHT22;19182;41.820;12.808;2024-01-10T13:58:13;10.00;99.90
32839;DHT22;19182;41.820;12.808;2024-01-10T14:05:38;10.00;99.90
32839;DHT22;19182;41.820;12.808;2024-01-10T14:08:04;10.00;99.90
32839;DHT22;19182;41.820;12.808;2024-01-10T14:12:57;10.00;99.90
32839;DHT22;19182;41.820;12.808;2024-01-10T14:15:22;10.00;99.90
32839;DHT22;19182;41.820;12.808;2024-01-10T14:22:41;9.90;99.90
32839;DHT22;19182;41.820;12.808;2024-01-10T14:30:00;9.90;99.90
32839;DHT22;19182;41.820;12.808;2024-01-10T14:34:55;9.90;99.90
32839;DHT22;19182;41.820;12.808;2024-01-10T14:42:12;9.90;99.90
32839;DHT22;19182;41.820;12.808;2024-01-10T14:44:39;9.80;99.90
32839;DHT22;19182;41.820;12.808;2024-01-10T14:47:05;9.80;99.90
32839;DHT22;19182;41.820;12.808;2024-01-10T14:49:32;9.80;99.90
32839;DHT22;19182;41.820;12.808;2024-01-10T14:51:57;9.80;99.90
32839;DHT22;19182;41.820;12.808;2024-01-10T14:54:23;9.70;99.90
32839;DHT22;19182;41.820;12.808;2024-01-10T14:59:19;9.80;99.90
32839;DHT22;19182;41.820;12.808;2024-01-10T15:01:45;9.80;99.90
32839;DHT22;19182;41.820;12.808;2024-01-10T15:04:12;9.80;99.90
32839;DHT22;19182;41.820;12.808;2024-01-10T15:07:02;9.80;99.90
32839;DHT22;19182;41.820;12.808;2024-01-10T15:09:28;9.70;99.90
32839;DHT22;19182;41.820;12.808;2024-01-10T15:14:23;9.70;99.90
32839;DHT22;19182;41.820;12.808;2024-01-10T15:16:50;9.70;99.90
32839;DHT22;19182;41.820;12.808;2024-01-10T15:19:15;9.70;99.90
32839;DHT22;19182;41.820;12.808;2024-01-10T15:24:07;9.60;99.90
32839;DHT22;19182;41.820;12.808;2024-01-10T15:26:34;9.60;99.90
32839;DHT22;19182;41.820;12.808;2024-01-10T15:31:26;9.60;99.90
32839;DHT22;19182;41.820;12.808;2024-01-10T15:38:47;9.50;99.90
32839;DHT22;19182;41.820;12.808;2024-01-10T15:41:12;9.40;99.90
32839;DHT22;19182;41.820;12.808;2024-01-10T15:50:59;9.40;99.90
32839;DHT22;19182;41.820;12.808;2024-01-10T15:55:51;9.40;99.90
32839;DHT22;19182;41.820;12.808;2024-01-10T15:58:18;9.40;99.90
32839;DHT22;19182;41.820;12.808;2024-01-10T16:08:54;9.40;99.90
32839;DHT22;19182;41.820;12.808;2024-01-10T16:11:19;9.30;99.90
32839;DHT22;19182;41.820;12.808;2024-01-10T16:16:12;9.30;99.90
32839;DHT22;19182;41.820;12.808;2024-01-10T16:18:38;9.30;99.90
32839;DHT22;19182;41.820;12.808;2024-01-10T16:21:04;9.20;99.90
32839;DHT22;19182;41.820;12.808;2024-01-10T16:23:30;9.10;99.90
32839;DHT22;19182;41.820;12.808;2024-01-10T16:26:00;9.20;99.90
32839;DHT22;19182;41.820;12.808;2024-01-10T16:28:26;9.20;99.90
32839;DHT22;19182;41.820;12.808;2024-01-10T16:33:19;9.20;99.90
32839;DHT22;19182;41.820;12.808;2024-01-10T16:52:57;9.30;99.90
32839;DHT22;19182;41.820;12.808;2024-01-10T16:57:49;9.20;99.90
32839;DHT22;19182;41.820;12.808;2024-01-10T17:00:19;9.20;99.90
32839;DHT22;19182;41.820;12.808;2024-01-10T17:05:12;9.30;99.90
32839;DHT22;19182;41.820;12.808;2024-01-10T17:10:05;9.20;99.90
32839;DHT22;19182;41.820;12.808;2024-01-10T17:12:32;9.20;99.90
32839;DHT22;19182;41.820;12.808;2024-01-10T17:14:58;9.10;99.90
32839;DHT22;19182;41.820;12.808;2024-01-10T17:17:23;9.10;99.90
32839;DHT22;19182;41.820;12.808;2024-01-10T17:19:49;9.20;99.90
32839;DHT22;19182;41.820;12.808;2024-01-10T17:22:15;9.20;99.90
32839;DHT22;19182;41.820;12.808;2024-01-10T17:24:41;9.20;99.90
32839;DHT22;19182;41.820;12.808;2024-01-10T17:27:07;9.10;99.90
32839;DHT22;19182;41.820;12.808;2024-01-10T17:29:33;9.10;99.90
32839;DHT22;19182;41.820;12.808;2024-01-10T17:31:59;9.10;99.90
32839;DHT22;19182;41.820;12.808;2024-01-10T17:34:26;9.00;99.90
32839;DHT22;19182;41.820;12.808;2024-01-10T17:36:52;9.00;99.90
32839;DHT22;19182;41.820;12.808;2024-01-10T17:39:18;9.00;99.90
32839;DHT22;19182;41.820;12.808;2024-01-10T17:49:04;8.80;99.90